createdAt,value
2022-09-09T00:02:01.940Z,100063.53
2022-09-09T00:04:40.542Z,100065.19
2022-09-09T00:07:51.875Z,100058.38
2022-09-09T00:10:29.752Z,100055.59
2022-09-09T00:13:17.058Z,100059.38
2022-09-09T00:16:08.367Z,100061.19
2022-09-09T00:18:56.337Z,100055.97
2022-09-09T00:22:02.594Z,100044.13
2022-09-09T00:24:43.176Z,100052.31
2022-09-09T00:27:46.412Z,100049.66
2022-09-09T00:30:23.290Z,100066.56
2022-09-09T00:32:59.263Z,100040.88
2022-09-09T00:35:45.684Z,100047.75
2022-09-09T00:38:19.243Z,100050.16
2022-09-09T00:41:03.088Z,100042.28
2022-09-09T00:43:34.387Z,100050.84
2022-09-09T00:46:25.843Z,100055.38
2022-09-09T00:49:32.998Z,100050.13
2022-09-09T00:52:39.576Z,100049.25
2022-09-09T00:55:41.506Z,100044.50
2022-09-09T00:58:10.391Z,100047.38
2022-09-09T01:00:51.288Z,100044.88
2022-09-09T01:03:32.509Z,100050.41
2022-09-09T01:06:34.255Z,100050.28
2022-09-09T01:09:25.267Z,100049.47
2022-09-09T01:12:26.219Z,100044.81
2022-09-09T01:15:04.305Z,100048.09
2022-09-09T01:17:46.027Z,100047.13
2022-09-09T01:20:20.332Z,100045.44
2022-09-09T01:23:14.933Z,100049.75
2022-09-09T01:26:40.616Z,100046.31
2022-09-09T01:29:14.457Z,100040.38
2022-09-09T01:32:04.489Z,100031.47
2022-09-09T01:34:41.409Z,100037.88
2022-09-09T01:37:14.224Z,100023.25
2022-09-09T01:39:45.692Z,100021.56
2022-09-09T01:42:17.170Z,100032.03
2022-09-09T01:44:44.166Z,100028.59
2022-09-09T01:47:11.185Z,100035.78
2022-09-09T01:49:38.131Z,100033.38
2022-09-09T01:52:05.274Z,100034.00
2022-09-09T01:54:34.380Z,100036.56
2022-09-09T01:57:29.658Z,100030.50
2022-09-09T02:00:08.740Z,100034.69
2022-09-09T02:02:57.447Z,100032.56
2022-09-09T02:05:56.338Z,100026.19
2022-09-09T02:08:34.251Z,100023.84
2022-09-09T02:11:24.436Z,100034.00
2022-09-09T02:13:59.842Z,100024.16
2022-09-09T02:16:37.302Z,100025.28
2022-09-09T02:19:14.908Z,100024.19
2022-09-09T02:21:46.304Z,100015.38
2022-09-09T02:24:16.870Z,100012.88
2022-09-09T02:26:48.684Z,100013.59
2022-09-09T02:29:35.309Z,100011.69
2022-09-09T02:32:07.594Z,100009.63
2022-09-09T02:34:43.274Z,100022.22
2022-09-09T02:37:11.920Z,100019.84
2022-09-09T02:39:39.078Z,100023.25
2022-09-09T02:42:06.845Z,100030.41
2022-09-09T02:44:33.828Z,100034.63
2022-09-09T02:47:27.041Z,100042.47
2022-09-09T02:50:17.972Z,100035.16
2022-09-09T02:53:16.019Z,100041.19
2022-09-09T02:55:56.534Z,100039.69
2022-09-09T02:58:24.141Z,100043.31
2022-09-09T03:00:52.647Z,100037.78
2022-09-09T03:03:21.368Z,100037.03
2022-09-09T03:05:48.683Z,100037.69
2022-09-09T03:08:15.835Z,100033.44
2022-09-09T03:10:42.932Z,100035.50
2022-09-09T03:13:10.189Z,100034.97
2022-09-09T03:15:37.179Z,100025.41
2022-09-09T03:18:04.216Z,100029.91
2022-09-09T03:20:32.076Z,100033.38
2022-09-09T03:23:01.268Z,100028.06
2022-09-09T03:25:29.657Z,100031.38
2022-09-09T03:27:57.384Z,100037.72
2022-09-09T03:30:28.974Z,100032.59
2022-09-09T03:32:56.390Z,100027.69
2022-09-09T03:35:23.589Z,100027.16
2022-09-09T03:37:50.655Z,100013.22
2022-09-09T03:40:17.709Z,100023.41
2022-09-09T03:42:44.726Z,100021.84
2022-09-09T03:45:12.228Z,100020.00
2022-09-09T03:47:39.397Z,100026.16
2022-09-09T03:50:10.589Z,100023.41
2022-09-09T03:52:42.067Z,100035.28
2022-09-09T03:55:10.130Z,100033.34
2022-09-09T03:57:38.214Z,100029.69
2022-09-09T04:00:07.890Z,100035.81
2022-09-09T04:02:35.100Z,100036.03
2022-09-09T04:05:02.130Z,100029.97
2022-09-09T04:07:29.203Z,100030.16
2022-09-09T04:09:56.386Z,100017.41
2022-09-09T04:12:23.483Z,100032.69
2022-09-09T04:14:50.429Z,100024.91
2022-09-09T04:17:18.397Z,100035.34
2022-09-09T04:19:45.365Z,100027.78
2022-09-09T04:22:12.331Z,100025.66
2022-09-09T04:24:39.381Z,100029.28
2022-09-09T04:27:06.334Z,100028.41
2022-09-09T04:29:33.353Z,100028.84
2022-09-09T04:32:00.333Z,100022.97
2022-09-09T04:34:27.391Z,100029.41
2022-09-09T04:36:54.320Z,100033.44
2022-09-09T04:39:21.238Z,100035.50
2022-09-09T04:41:48.298Z,100021.97
2022-09-09T04:44:15.428Z,100031.94
2022-09-09T04:46:42.550Z,100029.41
2022-09-09T04:49:14.455Z,100039.88
2022-09-09T04:51:42.108Z,100034.94
2022-09-09T04:54:09.029Z,100043.47
2022-09-09T04:56:37.335Z,100047.19
2022-09-09T04:59:04.352Z,100045.97
2022-09-09T05:01:31.480Z,100052.41
2022-09-09T05:03:58.837Z,100042.16
2022-09-09T05:06:26.001Z,100049.25
2022-09-09T05:08:53.468Z,100048.25
2022-09-09T05:11:27.938Z,100049.97
2022-09-09T05:13:55.676Z,100046.91
2022-09-09T05:16:24.437Z,100048.97
2022-09-09T05:18:52.308Z,100043.03
2022-09-09T05:21:22.375Z,100049.53
2022-09-09T05:23:49.818Z,100049.25
2022-09-09T05:26:20.485Z,100043.72
2022-09-09T05:28:48.021Z,100043.03
2022-09-09T05:31:17.996Z,100048.63
2022-09-09T05:33:47.440Z,100050.59
2022-09-09T05:36:20.821Z,100048.16
2022-09-09T05:38:48.600Z,100055.44
2022-09-09T05:41:18.639Z,100051.72
2022-09-09T05:43:46.635Z,100052.78
2022-09-09T05:46:18.871Z,100049.28
2022-09-09T05:48:48.383Z,100054.47
2022-09-09T05:51:22.812Z,100052.00
2022-09-09T05:53:50.096Z,100055.44
2022-09-09T05:56:19.326Z,100051.25
2022-09-09T05:58:50.233Z,100055.69
2022-09-09T06:01:24.942Z,100054.75
2022-09-09T06:03:53.270Z,100056.50
2022-09-09T06:06:29.702Z,100059.19
2022-09-09T06:08:59.147Z,100064.44
2022-09-09T06:11:33.644Z,100058.34
2022-09-09T06:14:01.304Z,100066.22
2022-09-09T06:16:30.483Z,100068.69
2022-09-09T06:18:58.902Z,100070.19
2022-09-09T06:21:35.527Z,100065.66
2022-09-09T06:24:03.394Z,100072.53
2022-09-09T06:26:43.654Z,100083.34
2022-09-09T06:29:11.305Z,100083.91
2022-09-09T06:31:39.655Z,100084.88
2022-09-09T06:34:09.321Z,100084.00
2022-09-09T06:36:39.324Z,100080.78
2022-09-09T06:39:12.145Z,100079.09
2022-09-09T06:41:42.061Z,100081.19
2022-09-09T06:44:09.168Z,100080.13
2022-09-09T06:46:36.793Z,100081.75
2022-09-09T06:49:04.230Z,100086.22
2022-09-09T06:51:37.661Z,100087.97
2022-09-09T06:54:05.407Z,100088.03
2022-09-09T06:56:38.111Z,100096.00
2022-09-09T06:59:07.095Z,100091.63
2022-09-09T07:01:37.199Z,100097.72
2022-09-09T07:04:08.532Z,100101.56
2022-09-09T07:06:47.309Z,100098.91
2022-09-09T07:09:17.294Z,100096.97
2022-09-09T07:11:50.315Z,100093.69
2022-09-09T07:14:17.900Z,100104.25
2022-09-09T07:16:46.511Z,100104.22
2022-09-09T07:19:15.457Z,100094.41
2022-09-09T07:21:43.283Z,100095.31
2022-09-09T07:24:11.717Z,100100.09
2022-09-09T07:26:40.705Z,100102.34
2022-09-09T07:29:09.105Z,100111.38
2022-09-09T07:31:38.945Z,100122.97
2022-09-09T07:34:06.585Z,100106.88
2022-09-09T07:36:40.154Z,100113.97
2022-09-09T07:39:14.143Z,100119.53
2022-09-09T07:41:47.646Z,100117.59
2022-09-09T07:44:25.960Z,100119.72
2022-09-09T07:46:53.108Z,100114.59
2022-09-09T07:49:27.411Z,100110.91
2022-09-09T07:51:56.774Z,100117.31
2022-09-09T07:54:24.710Z,100116.44
2022-09-09T07:56:53.108Z,100131.53
2022-09-09T07:59:20.812Z,100126.75
2022-09-09T08:01:54.531Z,100138.63
2022-09-09T08:04:23.420Z,100137.44
2022-09-09T08:07:02.145Z,100143.00
2022-09-09T08:09:30.107Z,100144.88
2022-09-09T08:11:58.212Z,100142.38
2022-09-09T08:14:25.961Z,100148.31
2022-09-09T08:16:55.276Z,100149.09
2022-09-09T08:19:22.346Z,100151.78
2022-09-09T08:21:50.137Z,100151.97
2022-09-09T08:24:17.913Z,100150.03
2022-09-09T08:26:50.347Z,100166.16
2022-09-09T08:29:21.182Z,100166.31
2022-09-09T08:31:52.279Z,100160.78
2022-09-09T08:34:22.193Z,100156.81
2022-09-09T08:36:51.463Z,100156.94
2022-09-09T08:39:21.514Z,100162.75
2022-09-09T08:42:01.665Z,100165.56
2022-09-09T08:45:13.089Z,100164.78
2022-09-09T08:48:01.054Z,100166.72
2022-09-09T08:50:36.511Z,100158.13
2022-09-09T08:53:34.908Z,100159.56
2022-09-09T08:56:12.654Z,100163.41
2022-09-09T08:58:49.988Z,100167.16
2022-09-09T09:01:32.770Z,100166.44
2022-09-09T09:04:45.175Z,100171.94
2022-09-09T09:07:38.231Z,100158.53
2022-09-09T09:10:42.029Z,100168.28
2022-09-09T09:13:44.070Z,100169.88
2022-09-09T09:16:44.762Z,100172.81
2022-09-09T09:19:17.384Z,100173.69
2022-09-09T09:21:51.547Z,100176.41
2022-09-09T09:24:26.998Z,100184.97
2022-09-09T09:26:54.998Z,100172.47
2022-09-09T09:29:25.306Z,100191.06
2022-09-09T09:31:56.563Z,100190.91
2022-09-09T09:34:25.390Z,100190.13
2022-09-09T09:36:58.201Z,100189.53
2022-09-09T09:42:21.796Z,100191.78
2022-09-09T09:44:50.700Z,100197.16
2022-09-09T09:47:28.024Z,100182.53
2022-09-09T09:50:03.579Z,100193.50
2022-09-09T09:52:33.258Z,100190.28
2022-09-09T09:55:07.542Z,100189.50
2022-09-09T09:57:35.541Z,100189.69
2022-09-09T10:00:17.720Z,100192.66
2022-09-09T10:02:46.964Z,100186.25
2022-09-09T10:05:26.831Z,100183.44
2022-09-09T10:08:17.656Z,100198.22
2022-09-09T10:11:34.094Z,100195.41
2022-09-09T10:14:34.236Z,100193.63
2022-09-09T10:17:14.330Z,100199.00
2022-09-09T10:20:00.017Z,100203.41
2022-09-09T10:22:33.094Z,100206.22
2022-09-09T10:26:14.706Z,100214.91
2022-09-09T10:29:33.948Z,100210.38
2022-09-09T10:32:46.292Z,100222.88
2022-09-09T10:35:34.328Z,100230.97
2022-09-09T10:38:29.793Z,100238.00
2022-09-09T10:40:57.632Z,100234.25
2022-09-09T10:44:00.601Z,100241.94
2022-09-09T10:46:56.962Z,100248.38
2022-09-09T10:50:01.692Z,100244.13
2022-09-09T10:52:52.049Z,100245.78
2022-09-09T10:55:29.902Z,100250.59
2022-09-09T10:58:00.095Z,100250.56
2022-09-09T11:00:44.932Z,100245.97
2022-09-09T11:03:27.972Z,100251.09
2022-09-09T11:06:14.466Z,100256.47
2022-09-09T11:08:42.009Z,100264.41
2022-09-09T11:11:30.332Z,100261.13
2022-09-09T11:14:20.927Z,100267.41
2022-09-09T11:16:58.072Z,100275.16
2022-09-09T11:19:42.467Z,100263.13
2022-09-09T11:22:37.623Z,100273.13
2022-09-09T11:26:04.675Z,100272.13
2022-09-09T11:28:59.519Z,100265.97
2022-09-09T11:31:49.547Z,100274.00
2022-09-09T11:34:52.955Z,100267.72
2022-09-09T11:37:47.014Z,100274.19
2022-09-09T11:40:28.974Z,100273.94
2022-09-09T11:43:28.069Z,100266.25
2022-09-09T11:46:01.181Z,100272.50
2022-09-09T11:48:39.397Z,100271.34
2022-09-09T11:51:17.125Z,100276.03
2022-09-09T11:54:02.400Z,100267.06
2022-09-09T11:56:45.089Z,100276.13
2022-09-09T11:59:33.166Z,100272.31
2022-09-09T12:02:19.805Z,100283.84
2022-09-09T12:05:11.043Z,100284.59
2022-09-09T12:07:59.732Z,100274.06
2022-09-09T12:10:30.063Z,100273.31
2022-09-09T12:13:08.259Z,100280.53
2022-09-09T12:15:35.773Z,100272.59
2022-09-09T12:18:03.833Z,100275.09
2022-09-09T12:20:39.989Z,100271.09
2022-09-09T12:23:15.209Z,100279.19
2022-09-09T12:26:16.728Z,100273.06
2022-09-09T12:29:19.815Z,100284.69
2022-09-09T12:32:12.490Z,100282.22
2022-09-09T12:35:21.267Z,100292.91
2022-09-09T12:38:01.165Z,100292.97
2022-09-09T12:40:36.515Z,100280.53
2022-09-09T12:43:22.198Z,100280.03
2022-09-09T12:45:57.681Z,100285.28
2022-09-09T12:48:54.939Z,100279.13
2022-09-09T12:51:32.089Z,100274.59
2022-09-09T12:54:00.910Z,100271.09
2022-09-09T12:56:32.478Z,100273.84
2022-09-09T12:59:01.904Z,100270.19
2022-09-09T13:01:33.616Z,100276.28
2022-09-09T13:04:01.547Z,100277.88
2022-09-09T13:06:34.245Z,100287.69
2022-09-09T13:09:03.263Z,100279.38
2022-09-09T13:11:59.751Z,100273.97
2022-09-09T13:14:38.378Z,100270.38
2022-09-09T13:17:07.830Z,100262.34
2022-09-09T13:19:38.902Z,100274.06
2022-09-09T13:22:28.557Z,100270.13
2022-09-09T13:25:29.781Z,100260.81
2022-09-09T13:28:03.503Z,100267.06
2022-09-09T13:30:41.374Z,100253.53
2022-09-09T13:33:13.974Z,100266.34
2022-09-09T13:36:00.153Z,100268.75
2022-09-09T13:38:30.097Z,100254.63
2022-09-09T13:41:04.283Z,100269.66
2022-09-09T13:43:46.388Z,100263.19
2022-09-09T13:46:31.217Z,100260.75
2022-09-09T13:49:00.807Z,100260.59
2022-09-09T13:51:46.477Z,100268.63
2022-09-09T13:54:17.123Z,100267.53
2022-09-09T13:56:45.287Z,100264.75
2022-09-09T13:59:30.734Z,100273.50
2022-09-09T14:02:09.685Z,100272.91
2022-09-09T14:04:36.688Z,100281.28
2022-09-09T14:07:04.379Z,100269.59
2022-09-09T14:09:31.301Z,100274.69
2022-09-09T14:11:58.708Z,100283.47
2022-09-09T14:14:26.803Z,100275.19
2022-09-09T14:16:53.719Z,100278.03
2022-09-09T14:19:21.002Z,100278.94
2022-09-09T14:21:48.048Z,100278.09
2022-09-09T14:24:15.151Z,100274.69
2022-09-09T14:26:42.080Z,100281.66
2022-09-09T14:29:09.048Z,100285.56
2022-09-09T14:31:36.013Z,100283.88
2022-09-09T14:34:02.978Z,100289.28
2022-09-09T14:36:30.175Z,100294.53
2022-09-09T14:38:57.163Z,100283.06
2022-09-09T14:41:24.551Z,100281.41
2022-09-09T14:43:52.949Z,100282.22
2022-09-09T14:46:21.843Z,100283.06
2022-09-09T14:51:26.006Z,100277.09
2022-09-09T14:53:55.891Z,100282.22
2022-09-09T14:56:30.610Z,100293.03
2022-09-09T14:59:01.850Z,100285.22
2022-09-09T15:01:30.757Z,100289.31
2022-09-09T15:04:04.611Z,100298.00
2022-09-09T15:06:36.841Z,100299.72
2022-09-09T15:09:04.455Z,100288.00
2022-09-09T15:11:38.764Z,100280.19
2022-09-09T15:14:08.452Z,100281.16
2022-09-09T15:16:36.416Z,100288.91
2022-09-09T15:19:04.156Z,100282.00
2022-09-09T15:21:36.930Z,100286.56
2022-09-09T15:24:05.412Z,100294.28
2022-09-09T15:26:32.862Z,100290.09
2022-09-09T15:29:00.464Z,100289.16
2022-09-09T15:31:32.851Z,100284.88
2022-09-09T15:34:02.815Z,100290.09
2022-09-09T15:36:33.401Z,100296.03
2022-09-09T15:39:02.247Z,100296.31
2022-09-09T15:41:30.406Z,100295.34
2022-09-09T15:43:58.709Z,100298.69
2022-09-09T15:46:28.097Z,100300.66
2022-09-09T15:48:58.660Z,100298.97
2022-09-09T15:51:44.018Z,100311.59
2022-09-09T15:54:20.878Z,100308.13
2022-09-09T15:56:55.818Z,100288.28
2022-09-09T15:59:24.530Z,100283.00
2022-09-09T16:01:54.508Z,100288.09
2022-09-09T16:04:26.428Z,100279.34
2022-09-09T16:07:05.605Z,100278.56
2022-09-09T16:09:33.851Z,100282.72
2022-09-09T16:12:03.440Z,100281.81
2022-09-09T16:14:35.165Z,100292.31
2022-09-09T16:17:03.017Z,100290.50
2022-09-09T16:19:32.179Z,100285.00
2022-09-09T16:21:59.390Z,100286.72
2022-09-09T16:24:26.740Z,100280.50
2022-09-09T16:26:55.926Z,100285.00
2022-09-09T16:29:23.999Z,100282.59
2022-09-09T16:31:51.663Z,100283.47
2022-09-09T16:34:19.798Z,100283.00
2022-09-09T16:36:49.452Z,100284.88
2022-09-09T16:39:19.625Z,100282.22
2022-09-09T16:41:49.317Z,100283.81
2022-09-09T16:44:19.797Z,100296.22
2022-09-09T16:46:49.779Z,100289.91
2022-09-09T16:49:17.477Z,100289.03
2022-09-09T16:51:54.116Z,100282.75
2022-09-09T16:54:24.434Z,100297.59
2022-09-09T16:56:52.115Z,100297.59
2022-09-09T16:59:22.253Z,100297.38
2022-09-09T17:01:52.654Z,100296.53
2022-09-09T17:04:27.334Z,100291.84
2022-09-09T17:06:56.936Z,100283.88
2022-09-09T17:09:28.485Z,100283.94
2022-09-09T17:11:55.826Z,100275.03
2022-09-09T17:14:24.817Z,100298.09
2022-09-09T17:16:52.084Z,100306.16
2022-09-09T17:19:19.237Z,100298.16
2022-09-09T17:22:15.661Z,100298.94
2022-09-09T17:24:35.566Z,100305.91
2022-09-09T17:27:03.383Z,100313.16
2022-09-09T17:29:30.452Z,100314.75
2022-09-09T17:31:57.539Z,100325.84
2022-09-09T17:34:26.163Z,100316.69
2022-09-09T17:36:53.273Z,100323.06
2022-09-09T17:39:20.344Z,100316.50
2022-09-09T17:41:47.339Z,100319.88
2022-09-09T17:44:14.389Z,100320.84
2022-09-09T17:46:43.979Z,100325.84
2022-09-09T17:49:13.996Z,100329.63
2022-09-09T17:51:42.882Z,100336.69
2022-09-09T17:54:15.250Z,100328.50
2022-09-09T17:56:43.146Z,100328.91
2022-09-09T17:59:13.412Z,100327.63
2022-09-09T18:01:45.724Z,100327.00
2022-09-09T18:04:15.424Z,100336.38
2022-09-09T18:06:51.665Z,100334.78
2022-09-09T18:09:26.468Z,100343.72
2022-09-09T18:11:57.027Z,100348.78
2022-09-09T18:14:28.320Z,100355.75
2022-09-09T18:16:55.626Z,100346.91
2022-09-09T18:19:26.728Z,100355.28
2022-09-09T18:21:56.398Z,100354.56
2022-09-09T18:24:26.762Z,100356.22
2022-09-09T18:26:53.843Z,100362.75
2022-09-09T18:29:24.051Z,100359.94
2022-09-09T18:31:53.329Z,100356.22
2022-09-09T18:34:22.860Z,100361.97
2022-09-09T18:36:56.151Z,100361.78
2022-09-09T18:39:29.763Z,100353.56
2022-09-09T18:42:01.461Z,100352.47
2022-09-09T18:44:35.568Z,100362.47
2022-09-09T18:47:03.846Z,100364.91
2022-09-09T18:49:30.902Z,100367.38
2022-09-09T18:51:58.022Z,100375.03
2022-09-09T18:54:30.540Z,100363.56
2022-09-09T18:57:00.572Z,100364.41
2022-09-09T18:59:28.388Z,100374.31
2022-09-09T19:01:55.776Z,100373.38
2022-09-09T19:04:24.453Z,100366.28
2022-09-09T19:06:57.851Z,100370.72
2022-09-09T19:09:31.578Z,100369.09
2022-09-09T19:12:00.620Z,100364.13
2022-09-09T19:14:28.577Z,100360.09
2022-09-09T19:16:56.468Z,100355.19
2022-09-09T19:19:31.259Z,100362.84
2022-09-09T19:21:58.869Z,100365.25
2022-09-09T19:24:32.442Z,100369.50
2022-09-09T19:27:04.417Z,100375.00
2022-09-09T19:29:36.439Z,100367.91
2022-09-09T19:32:49.707Z,100374.13
2022-09-09T19:34:52.493Z,100367.56
2022-09-09T19:37:19.837Z,100370.47
2022-09-09T19:39:47.992Z,100363.63
2022-09-09T19:42:15.677Z,100361.47
2022-09-09T19:44:42.705Z,100359.75
2022-09-09T19:47:09.670Z,100345.09
2022-09-09T19:49:38.594Z,100348.09
2022-09-09T19:52:05.769Z,100359.81
2022-09-09T19:54:33.501Z,100357.03
2022-09-09T19:57:01.303Z,100353.44
2022-09-09T19:59:28.514Z,100344.44
2022-09-09T20:01:56.979Z,100346.00
2022-09-09T20:04:24.659Z,100359.75
2022-09-09T20:06:53.216Z,100362.16
2022-09-09T20:09:21.957Z,100357.59
2022-09-09T20:11:50.528Z,100359.56
2022-09-09T20:14:18.430Z,100353.66
2022-09-09T20:16:46.712Z,100357.44
2022-09-09T20:19:18.642Z,100357.09
2022-09-09T20:21:52.111Z,100358.53
2022-09-09T20:24:24.029Z,100355.91
2022-09-09T20:26:51.157Z,100355.88
2022-09-09T20:29:20.698Z,100369.25
2022-09-09T20:31:49.187Z,100364.63
2022-09-09T20:34:22.935Z,100357.38
2022-09-09T20:36:51.081Z,100356.44
2022-09-09T20:39:20.705Z,100360.03
2022-09-09T20:41:48.696Z,100365.56
2022-09-09T20:44:19.253Z,100360.47
2022-09-09T20:46:49.971Z,100359.50
2022-09-09T20:49:23.072Z,100359.22
2022-09-09T20:51:51.492Z,100362.97
2022-09-09T20:54:25.115Z,100365.25
2022-09-09T20:56:55.264Z,100364.44
2022-09-09T20:59:28.547Z,100368.88
2022-09-09T21:01:57.121Z,100368.41
2022-09-09T21:04:25.185Z,100367.53
2022-09-09T21:06:52.740Z,100367.34
2022-09-09T21:09:23.260Z,100371.81
2022-09-09T21:11:51.507Z,100381.84
2022-09-09T21:14:18.640Z,100373.22
2022-09-09T21:16:45.851Z,100371.13
2022-09-09T21:19:12.799Z,100379.41
2022-09-09T21:21:40.155Z,100381.09
2022-09-09T21:24:07.299Z,100381.97
2022-09-09T21:26:35.537Z,100383.81
2022-09-09T21:29:02.539Z,100384.59
2022-09-09T21:31:29.903Z,100382.94
2022-09-09T21:33:58.726Z,100387.16
2022-09-09T21:36:28.102Z,100388.00
2022-09-09T21:38:55.438Z,100384.16
2022-09-09T21:41:22.481Z,100381.50
2022-09-09T21:43:54.220Z,100383.19
2022-09-09T21:46:23.289Z,100381.38
2022-09-09T21:48:50.776Z,100385.00
2022-09-09T21:51:18.657Z,100377.78
2022-09-09T21:53:46.195Z,100372.00
2022-09-09T21:56:17.913Z,100369.97
2022-09-09T21:58:46.892Z,100373.56
2022-09-09T22:01:18.547Z,100375.50
2022-09-09T22:03:46.210Z,100375.47
2022-09-09T22:06:16.780Z,100378.06
2022-09-09T22:08:46.098Z,100370.38
2022-09-09T22:11:20.642Z,100375.06
2022-09-09T22:13:48.365Z,100367.09
2022-09-09T22:16:19.074Z,100375.34
2022-09-09T22:18:56.736Z,100370.78
2022-09-09T22:21:25.201Z,100372.84
2022-09-09T22:23:55.491Z,100375.41
2022-09-09T22:26:24.562Z,100381.25
2022-09-09T22:28:53.796Z,100371.63
2022-09-09T22:31:22.842Z,100363.56
2022-09-09T22:33:51.131Z,100365.38
2022-09-09T22:36:20.421Z,100375.16
2022-09-09T22:38:49.156Z,100357.00
2022-09-09T22:41:17.169Z,100366.69
2022-09-09T22:43:44.951Z,100361.41
2022-09-09T22:46:12.313Z,100365.72
2022-09-09T22:48:40.504Z,100368.00
2022-09-09T22:51:14.183Z,100365.44
2022-09-09T22:53:43.469Z,100358.16
2022-09-09T22:56:17.321Z,100363.34
2022-09-09T22:58:44.530Z,100366.47
2022-09-09T23:01:15.971Z,100368.13
2022-09-09T23:03:46.101Z,100359.03
2022-09-09T23:06:20.228Z,100357.19
2022-09-09T23:08:51.908Z,100356.78
2022-09-09T23:11:19.568Z,100351.41
2022-09-09T23:13:56.018Z,100357.69
2022-09-09T23:16:33.079Z,100362.31
2022-09-09T23:19:01.028Z,100363.59
2022-09-09T23:21:30.403Z,100350.50
2022-09-09T23:23:59.804Z,100348.56
2022-09-09T23:26:29.868Z,100345.16
2022-09-09T23:28:59.348Z,100344.75
2022-09-09T23:31:30.203Z,100337.63
2022-09-09T23:33:58.577Z,100337.50
2022-09-09T23:36:26.563Z,100341.13
2022-09-09T23:38:56.285Z,100341.13
2022-09-09T23:41:23.609Z,100334.00
2022-09-09T23:43:53.387Z,100337.59
2022-09-09T23:46:28.608Z,100327.88
2022-09-09T23:48:57.890Z,100329.00
2022-09-09T23:51:28.885Z,100333.59
2022-09-09T23:53:58.509Z,100333.28
2022-09-09T23:56:29.852Z,100331.66
2022-09-09T23:58:56.840Z,100329.75
